sensor_id;sensor_type;location;lat;lon;timestamp;pressure;altitude;pressure_sealevel;temperature;humidity
33506;BME280;19843;51.040;13.782;2023-10-13T00:00:28;100239.47;;;17.32;99.36
33506;BME280;19843;51.040;13.782;2023-10-13T00:03:00;100237.06;;;17.34;99.09
33506;BME280;19843;51.040;13.782;2023-10-13T00:05:29;100243.09;;;17.32;98.14
33506;BME280;19843;51.040;13.782;2023-10-13T00:08:00;100239.41;;;17.25;98.24
33506;BME280;19843;51.040;13.782;2023-10-13T00:10:28;100237.84;;;17.31;97.92
33506;BME280;19843;51.040;13.782;2023-10-13T00:12:56;100238.22;;;17.26;98.35
33506;BME280;19843;51.040;13.782;2023-10-13T00:15:32;100245.09;;;17.28;100.00
33506;BME280;19843;51.040;13.782;2023-10-13T00:18:05;100234.63;;;17.32;99.62
33506;BME280;19843;51.040;13.782;2023-10-13T00:20:40;100237.88;;;17.34;98.95
33506;BME280;19843;51.040;13.782;2023-10-13T00:23:14;100239.38;;;17.21;98.72
33506;BME280;19843;51.040;13.782;2023-10-13T00:25:48;100242.72;;;17.34;99.29
33506;BME280;19843;51.040;13.782;2023-10-13T00:28:23;100237.22;;;17.07;100.00
33506;BME280;19843;51.040;13.782;2023-10-13T00:30:54;100241.44;;;17.24;100.00
33506;BME280;19843;51.040;13.782;2023-10-13T00:33:27;100238.28;;;17.33;99.89
33506;BME280;19843;51.040;13.782;2023-10-13T00:35:54;100238.16;;;17.22;100.00
33506;BME280;19843;51.040;13.782;2023-10-13T00:38:25;100237.44;;;17.32;99.51
33506;BME280;19843;51.040;13.782;2023-10-13T00:40:53;100237.91;;;17.38;98.45
33506;BME280;19843;51.040;13.782;2023-10-13T00:43:22;100242.34;;;17.39;97.35
33506;BME280;19843;51.040;13.782;2023-10-13T00:46:01;100241.91;;;17.37;97.02
33506;BME280;19843;51.040;13.782;2023-10-13T00:48:40;100240.63;;;17.27;98.63
33506;BME280;19843;51.040;13.782;2023-10-13T00:51:18;100246.75;;;17.33;98.54
33506;BME280;19843;51.040;13.782;2023-10-13T00:54:01;100247.91;;;17.32;98.81
33506;BME280;19843;51.040;13.782;2023-10-13T00:56:29;100239.91;;;17.34;99.11
33506;BME280;19843;51.040;13.782;2023-10-13T00:58:58;100246.28;;;17.27;97.92
33506;BME280;19843;51.040;13.782;2023-10-13T01:01:29;100255.56;;;17.31;97.40
33506;BME280;19843;51.040;13.782;2023-10-13T01:03:59;100248.28;;;17.27;97.57
33506;BME280;19843;51.040;13.782;2023-10-13T01:06:28;100248.81;;;16.95;99.56
33506;BME280;19843;51.040;13.782;2023-10-13T01:09:01;100240.47;;;17.06;99.21
33506;BME280;19843;51.040;13.782;2023-10-13T01:11:38;100241.00;;;17.22;97.75
33506;BME280;19843;51.040;13.782;2023-10-13T01:14:06;100241.22;;;17.03;99.83
33506;BME280;19843;51.040;13.782;2023-10-13T01:16:33;100238.53;;;17.17;98.02
33506;BME280;19843;51.040;13.782;2023-10-13T01:19:02;100245.00;;;17.21;97.99
33506;BME280;19843;51.040;13.782;2023-10-13T01:21:32;100245.88;;;17.25;98.14
33506;BME280;19843;51.040;13.782;2023-10-13T01:24:01;100242.28;;;17.28;97.73
33506;BME280;19843;51.040;13.782;2023-10-13T01:26:34;100246.72;;;17.29;97.75
33506;BME280;19843;51.040;13.782;2023-10-13T01:29:06;100245.00;;;17.21;97.26
33506;BME280;19843;51.040;13.782;2023-10-13T01:31:38;100240.81;;;17.01;99.00
33506;BME280;19843;51.040;13.782;2023-10-13T01:34:13;100240.97;;;17.19;98.32
33506;BME280;19843;51.040;13.782;2023-10-13T01:36:46;100243.38;;;17.17;99.13
33506;BME280;19843;51.040;13.782;2023-10-13T01:39:15;100238.97;;;17.23;99.35
33506;BME280;19843;51.040;13.782;2023-10-13T01:41:43;100242.59;;;17.23;98.67
33506;BME280;19843;51.040;13.782;2023-10-13T01:44:10;100247.00;;;17.17;98.42
33506;BME280;19843;51.040;13.782;2023-10-13T01:46:38;100245.69;;;17.07;100.00
33506;BME280;19843;51.040;13.782;2023-10-13T01:49:05;100244.53;;;17.12;100.00
33506;BME280;19843;51.040;13.782;2023-10-13T01:51:34;100246.41;;;16.97;100.00
33506;BME280;19843;51.040;13.782;2023-10-13T01:54:02;100246.41;;;16.97;100.00
33506;BME280;19843;51.040;13.782;2023-10-13T01:56:30;100256.63;;;17.12;99.77
33506;BME280;19843;51.040;13.782;2023-10-13T01:58:58;100251.81;;;17.17;99.36
33506;BME280;19843;51.040;13.782;2023-10-13T02:01:33;100254.25;;;17.18;99.58
33506;BME280;19843;51.040;13.782;2023-10-13T02:04:01;100246.16;;;17.13;100.00
33506;BME280;19843;51.040;13.782;2023-10-13T02:06:30;100249.50;;;17.26;98.66
33506;BME280;19843;51.040;13.782;2023-10-13T02:09:04;100246.31;;;17.31;98.12
33506;BME280;19843;51.040;13.782;2023-10-13T02:11:39;100243.81;;;17.22;99.66
33506;BME280;19843;51.040;13.782;2023-10-13T02:14:08;100246.75;;;17.33;99.01
33506;BME280;19843;51.040;13.782;2023-10-13T02:16:37;100249.09;;;16.83;100.00
33506;BME280;19843;51.040;13.782;2023-10-13T02:19:05;100251.78;;;17.13;100.00
33506;BME280;19843;51.040;13.782;2023-10-13T02:21:32;100240.50;;;17.09;100.00
33506;BME280;19843;51.040;13.782;2023-10-13T02:24:05;100240.78;;;16.97;100.00
33506;BME280;19843;51.040;13.782;2023-10-13T02:26:40;100240.50;;;17.09;100.00
33506;BME280;19843;51.040;13.782;2023-10-13T02:29:08;100236.53;;;17.18;99.76
33506;BME280;19843;51.040;13.782;2023-10-13T02:31:35;100241.41;;;17.21;99.58
33506;BME280;19843;51.040;13.782;2023-10-13T02:34:03;100238.97;;;17.23;99.83
33506;BME280;19843;51.040;13.782;2023-10-13T02:36:34;100228.53;;;17.27;99.29
33506;BME280;19843;51.040;13.782;2023-10-13T02:39:13;100237.31;;;17.14;99.52
33506;BME280;19843;51.040;13.782;2023-10-13T02:41:44;100216.31;;;17.12;100.00
33506;BME280;19843;51.040;13.782;2023-10-13T02:44:14;100210.41;;;17.24;100.00
33506;BME280;19843;51.040;13.782;2023-10-13T02:46:53;100205.94;;;17.23;99.38
33506;BME280;19843;51.040;13.782;2023-10-13T02:49:22;100204.31;;;17.19;100.00
33506;BME280;19843;51.040;13.782;2023-10-13T02:51:52;100218.81;;;17.21;99.62
33506;BME280;19843;51.040;13.782;2023-10-13T02:54:21;100211.56;;;17.20;100.00
33506;BME280;19843;51.040;13.782;2023-10-13T02:56:49;100206.44;;;17.36;98.51
33506;BME280;19843;51.040;13.782;2023-10-13T02:59:23;100208.06;;;17.37;98.84
33506;BME280;19843;51.040;13.782;2023-10-13T03:02:01;100213.94;;;17.18;99.83
33506;BME280;19843;51.040;13.782;2023-10-13T03:04:33;100212.69;;;17.11;100.00
33506;BME280;19843;51.040;13.782;2023-10-13T03:07:05;100201.06;;;17.17;100.00
33506;BME280;19843;51.040;13.782;2023-10-13T03:09:32;100206.78;;;17.24;99.75
33506;BME280;19843;51.040;13.782;2023-10-13T03:12:05;100204.00;;;17.31;98.85
33506;BME280;19843;51.040;13.782;2023-10-13T03:14:34;100203.09;;;17.20;99.84
33506;BME280;19843;51.040;13.782;2023-10-13T03:17:03;100194.69;;;17.27;100.00
33506;BME280;19843;51.040;13.782;2023-10-13T03:19:32;100204.44;;;17.36;99.32
33506;BME280;19843;51.040;13.782;2023-10-13T03:22:03;100209.25;;;17.36;99.29
33506;BME280;19843;51.040;13.782;2023-10-13T03:24:36;100211.34;;;17.43;99.25
33506;BME280;19843;51.040;13.782;2023-10-13T03:27:09;100208.97;;;17.48;98.46
33506;BME280;19843;51.040;13.782;2023-10-13T03:29:37;100202.16;;;17.53;97.74
33506;BME280;19843;51.040;13.782;2023-10-13T03:32:09;100188.56;;;17.18;100.00
33506;BME280;19843;51.040;13.782;2023-10-13T03:34:38;100181.38;;;17.27;100.00
33506;BME280;19843;51.040;13.782;2023-10-13T03:37:16;100168.94;;;17.28;99.74
33506;BME280;19843;51.040;13.782;2023-10-13T03:39:49;100173.00;;;17.34;99.73
33506;BME280;19843;51.040;13.782;2023-10-13T03:42:19;100170.00;;;17.13;100.00
33506;BME280;19843;51.040;13.782;2023-10-13T03:44:48;100165.16;;;17.10;100.00
33506;BME280;19843;51.040;13.782;2023-10-13T03:47:16;100164.84;;;17.22;100.00
33506;BME280;19843;51.040;13.782;2023-10-13T03:49:53;100165.69;;;17.30;99.36
33506;BME280;19843;51.040;13.782;2023-10-13T03:52:41;100161.19;;;17.22;99.96
33506;BME280;19843;51.040;13.782;2023-10-13T03:55:09;100155.81;;;17.02;100.00
33506;BME280;19843;51.040;13.782;2023-10-13T03:57:45;100164.31;;;17.06;100.00
33506;BME280;19843;51.040;13.782;2023-10-13T04:00:16;100160.16;;;16.93;100.00
33506;BME280;19843;51.040;13.782;2023-10-13T04:02:50;100153.81;;;17.03;100.00
33506;BME280;19843;51.040;13.782;2023-10-13T04:05:32;100146.19;;;17.07;100.00
33506;BME280;19843;51.040;13.782;2023-10-13T04:08:06;100145.41;;;17.13;100.00
33506;BME280;19843;51.040;13.782;2023-10-13T04:10:52;100154.00;;;16.80;100.00
33506;BME280;19843;51.040;13.782;2023-10-13T04:13:37;100146.16;;;17.03;100.00
33506;BME280;19843;51.040;13.782;2023-10-13T04:16:48;100147.00;;;17.07;100.00
33506;BME280;19843;51.040;13.782;2023-10-13T04:19:21;100151.91;;;17.14;100.00
33506;BME280;19843;51.040;13.782;2023-10-13T04:21:53;100155.16;;;17.20;99.94
33506;BME280;19843;51.040;13.782;2023-10-13T04:24:27;100153.53;;;17.19;100.00
33506;BME280;19843;51.040;13.782;2023-10-13T04:27:06;100153.06;;;17.09;100.00
33506;BME280;19843;51.040;13.782;2023-10-13T04:29:58;100148.59;;;17.05;100.00
33506;BME280;19843;51.040;13.782;2023-10-13T04:32:37;100150.97;;;17.03;100.00
33506;BME280;19843;51.040;13.782;2023-10-13T04:35:15;100149.69;;;16.93;100.00
33506;BME280;19843;51.040;13.782;2023-10-13T04:37:45;100148.88;;;16.93;100.00
33506;BME280;19843;51.040;13.782;2023-10-13T04:40:18;100143.25;;;16.93;100.00
33506;BME280;19843;51.040;13.782;2023-10-13T04:42:46;100132.38;;;16.95;100.00
33506;BME280;19843;51.040;13.782;2023-10-13T04:45:21;100130.41;;;16.95;100.00
33506;BME280;19843;51.040;13.782;2023-10-13T04:48:05;100129.66;;;16.61;100.00
33506;BME280;19843;51.040;13.782;2023-10-13T04:51:00;100130.84;;;17.01;100.00
33506;BME280;19843;51.040;13.782;2023-10-13T04:53:59;100131.56;;;16.94;100.00
33506;BME280;19843;51.040;13.782;2023-10-13T04:56:30;100132.84;;;17.00;100.00
33506;BME280;19843;51.040;13.782;2023-10-13T04:59:15;100136.88;;;17.03;100.00
33506;BME280;19843;51.040;13.782;2023-10-13T05:02:03;100135.66;;;17.00;100.00
33506;BME280;19843;51.040;13.782;2023-10-13T05:05:10;100130.06;;;17.07;99.68
33506;BME280;19843;51.040;13.782;2023-10-13T05:08:10;100125.16;;;16.56;100.00
33506;BME280;19843;51.040;13.782;2023-10-13T05:10:55;100122.63;;;16.81;100.00
33506;BME280;19843;51.040;13.782;2023-10-13T05:13:41;100120.66;;;16.85;100.00
33506;BME280;19843;51.040;13.782;2023-10-13T05:16:26;100129.44;;;16.80;100.00
33506;BME280;19843;51.040;13.782;2023-10-13T05:19:12;100130.19;;;16.74;100.00
33506;BME280;19843;51.040;13.782;2023-10-13T05:21:58;100131.81;;;16.75;100.00
33506;BME280;19843;51.040;13.782;2023-10-13T05:24:43;100136.88;;;16.58;100.00
33506;BME280;19843;51.040;13.782;2023-10-13T05:27:29;100137.41;;;16.71;100.00
33506;BME280;19843;51.040;13.782;2023-10-13T05:30:14;100147.16;;;16.77;100.00
33506;BME280;19843;51.040;13.782;2023-10-13T05:32:59;100139.16;;;16.83;100.00
33506;BME280;19843;51.040;13.782;2023-10-13T05:35:45;100145.34;;;17.03;99.53
33506;BME280;19843;51.040;13.782;2023-10-13T05:38:31;100143.72;;;17.02;99.96
33506;BME280;19843;51.040;13.782;2023-10-13T05:41:16;100153.81;;;17.03;100.00
33506;BME280;19843;51.040;13.782;2023-10-13T05:44:01;100160.31;;;17.10;98.94
33506;BME280;19843;51.040;13.782;2023-10-13T05:46:47;100163.59;;;17.16;98.43
33506;BME280;19843;51.040;13.782;2023-10-13T05:49:29;100167.28;;;17.27;97.69
33506;BME280;19843;51.040;13.782;2023-10-13T05:52:17;100155.53;;;17.18;98.49
33506;BME280;19843;51.040;13.782;2023-10-13T05:55:08;100157.25;;;17.30;97.29
33506;BME280;19843;51.040;13.782;2023-10-13T05:57:53;100158.06;;;17.34;97.07
33506;BME280;19843;51.040;13.782;2023-10-13T06:00:39;100157.53;;;17.14;97.20
33506;BME280;19843;51.040;13.782;2023-10-13T06:03:24;100166.22;;;17.46;95.70
33506;BME280;19843;51.040;13.782;2023-10-13T06:06:10;100162.22;;;17.54;95.33
33506;BME280;19843;51.040;13.782;2023-10-13T06:08:57;100163.38;;;17.46;95.85
33506;BME280;19843;51.040;13.782;2023-10-13T06:11:42;100168.25;;;17.49;96.08
33506;BME280;19843;51.040;13.782;2023-10-13T06:14:27;100173.84;;;17.42;96.27
33506;BME280;19843;51.040;13.782;2023-10-13T06:17:12;100171.56;;;17.65;94.81
33506;BME280;19843;51.040;13.782;2023-10-13T06:19:57;100174.00;;;17.71;93.94
33506;BME280;19843;51.040;13.782;2023-10-13T06:22:47;100172.13;;;17.89;93.13
33506;BME280;19843;51.040;13.782;2023-10-13T06:25:33;100178.22;;;17.98;92.90
33506;BME280;19843;51.040;13.782;2023-10-13T06:28:19;100175.44;;;18.05;92.42
33506;BME280;19843;51.040;13.782;2023-10-13T06:31:05;100180.31;;;18.12;91.57
33506;BME280;19843;51.040;13.782;2023-10-13T06:33:33;100175.06;;;18.10;91.92
33506;BME280;19843;51.040;13.782;2023-10-13T06:36:01;100178.28;;;18.12;91.78
33506;BME280;19843;51.040;13.782;2023-10-13T06:38:30;100166.13;;;18.01;91.89
33506;BME280;19843;51.040;13.782;2023-10-13T06:41:04;100169.44;;;18.21;90.63
33506;BME280;19843;51.040;13.782;2023-10-13T06:43:32;100161.41;;;18.34;90.02
33506;BME280;19843;51.040;13.782;2023-10-13T06:46:05;100164.66;;;18.39;89.65
33506;BME280;19843;51.040;13.782;2023-10-13T06:48:34;100157.41;;;18.49;88.97
33506;BME280;19843;51.040;13.782;2023-10-13T06:51:02;100153.34;;;18.47;89.28
33506;BME280;19843;51.040;13.782;2023-10-13T06:53:45;100154.56;;;18.38;89.71
33506;BME280;19843;51.040;13.782;2023-10-13T06:56:15;100151.78;;;18.63;88.11
33506;BME280;19843;51.040;13.782;2023-10-13T06:58:48;100160.31;;;18.88;86.75
33506;BME280;19843;51.040;13.782;2023-10-13T07:01:16;100150.22;;;18.87;86.95
33506;BME280;19843;51.040;13.782;2023-10-13T07:03:48;100154.28;;;19.04;86.89
33506;BME280;19843;51.040;13.782;2023-10-13T07:06:19;100160.72;;;19.01;86.87
33506;BME280;19843;51.040;13.782;2023-10-13T07:08:47;100159.13;;;19.14;85.86
33506;BME280;19843;51.040;13.782;2023-10-13T07:11:24;100145.75;;;19.29;84.79
33506;BME280;19843;51.040;13.782;2023-10-13T07:14:00;100148.59;;;19.26;84.62
33506;BME280;19843;51.040;13.782;2023-10-13T07:16:54;100152.19;;;19.40;83.90
33506;BME280;19843;51.040;13.782;2023-10-13T07:19:25;100142.97;;;19.04;85.86
33506;BME280;19843;51.040;13.782;2023-10-13T07:21:55;100148.19;;;19.20;85.13
33506;BME280;19843;51.040;13.782;2023-10-13T07:24:25;100155.09;;;19.05;86.61
33506;BME280;19843;51.040;13.782;2023-10-13T07:27:01;100142.13;;;19.22;85.26
33506;BME280;19843;51.040;13.782;2023-10-13T07:29:32;100143.38;;;18.85;88.24
33506;BME280;19843;51.040;13.782;2023-10-13T07:32:02;100140.53;;;19.28;85.25
33506;BME280;19843;51.040;13.782;2023-10-13T07:34:33;100146.97;;;19.07;85.07
33506;BME280;19843;51.040;13.782;2023-10-13T07:37:01;100132.41;;;19.30;84.71
33506;BME280;19843;51.040;13.782;2023-10-13T07:39:34;100130.41;;;19.37;83.80
33506;BME280;19843;51.040;13.782;2023-10-13T07:42:06;100143.31;;;19.42;84.39
33506;BME280;19843;51.040;13.782;2023-10-13T07:44:42;100135.59;;;19.60;84.00
33506;BME280;19843;51.040;13.782;2023-10-13T07:47:13;100131.97;;;19.56;83.35
33506;BME280;19843;51.040;13.782;2023-10-13T07:49:44;100129.88;;;19.82;81.64
33506;BME280;19843;51.040;13.782;2023-10-13T07:52:17;100119.28;;;20.00;81.30
33506;BME280;19843;51.040;13.782;2023-10-13T07:55:04;100124.81;;;20.29;80.55
33506;BME280;19843;51.040;13.782;2023-10-13T07:57:42;100111.91;;;20.20;80.68
33506;BME280;19843;51.040;13.782;2023-10-13T08:00:22;100100.13;;;20.22;80.60
33506;BME280;19843;51.040;13.782;2023-10-13T08:02:57;100098.84;;;20.37;80.45
33506;BME280;19843;51.040;13.782;2023-10-13T08:05:35;100088.03;;;20.81;78.13
33506;BME280;19843;51.040;13.782;2023-10-13T08:08:22;100095.19;;;20.92;77.35
33506;BME280;19843;51.040;13.782;2023-10-13T08:10:52;100094.63;;;21.12;76.94
33506;BME280;19843;51.040;13.782;2023-10-13T08:13:23;100092.16;;;21.55;75.63
33506;BME280;19843;51.040;13.782;2023-10-13T08:15:53;100086.06;;;21.57;75.40
33506;BME280;19843;51.040;13.782;2023-10-13T08:18:21;100086.47;;;21.55;74.42
33506;BME280;19843;51.040;13.782;2023-10-13T08:20:57;100079.50;;;21.63;74.24
33506;BME280;19843;51.040;13.782;2023-10-13T08:23:30;100085.94;;;21.30;74.87
33506;BME280;19843;51.040;13.782;2023-10-13T08:26:16;100079.81;;;21.69;74.15
33506;BME280;19843;51.040;13.782;2023-10-13T08:29:25;100084.22;;;21.73;74.28
33506;BME280;19843;51.040;13.782;2023-10-13T08:32:12;100075.66;;;21.77;74.20
33506;BME280;19843;51.040;13.782;2023-10-13T08:35:01;100073.78;;;21.67;74.42
33506;BME280;19843;51.040;13.782;2023-10-13T08:37:49;100086.06;;;21.91;74.06
33506;BME280;19843;51.040;13.782;2023-10-13T08:40:50;100065.22;;;22.32;71.67
33506;BME280;19843;51.040;13.782;2023-10-13T08:43:40;100070.03;;;22.35;70.55
33506;BME280;19843;51.040;13.782;2023-10-13T08:46:13;100064.59;;;22.17;71.53
33506;BME280;19843;51.040;13.782;2023-10-13T08:48:55;100069.00;;;22.48;69.70
33506;BME280;19843;51.040;13.782;2023-10-13T08:51:34;100071.03;;;22.75;68.61
33506;BME280;19843;51.040;13.782;2023-10-13T08:54:13;100075.03;;;22.78;68.20
33506;BME280;19843;51.040;13.782;2023-10-13T08:57:01;100076.25;;;23.04;67.40
33506;BME280;19843;51.040;13.782;2023-10-13T08:59:46;100075.56;;;22.96;67.46
33506;BME280;19843;51.040;13.782;2023-10-13T09:02:22;100067.00;;;22.72;68.47
33506;BME280;19843;51.040;13.782;2023-10-13T09:05:10;100065.41;;;22.44;70.39
33506;BME280;19843;51.040;13.782;2023-10-13T09:07:58;100057.91;;;22.58;69.90
33506;BME280;19843;51.040;13.782;2023-10-13T09:10:35;100063.84;;;22.40;70.48
33506;BME280;19843;51.040;13.782;2023-10-13T09:13:11;100054.13;;;22.41;72.52
33506;BME280;19843;51.040;13.782;2023-10-13T09:15:45;100065.25;;;22.55;70.40
33506;BME280;19843;51.040;13.782;2023-10-13T09:18:29;100059.09;;;22.60;70.28
33506;BME280;19843;51.040;13.782;2023-10-13T09:21:15;100055.78;;;22.62;70.84
33506;BME280;19843;51.040;13.782;2023-10-13T09:24:14;100043.91;;;22.43;70.45
33506;BME280;19843;51.040;13.782;2023-10-13T09:26:45;100045.59;;;22.64;69.42
33506;BME280;19843;51.040;13.782;2023-10-13T09:29:18;100045.84;;;22.73;69.66
33506;BME280;19843;51.040;13.782;2023-10-13T09:31:46;100049.72;;;22.83;69.09
33506;BME280;19843;51.040;13.782;2023-10-13T09:34:23;100047.84;;;23.00;68.12
33506;BME280;19843;51.040;13.782;2023-10-13T09:36:50;100042.91;;;23.04;68.73
33506;BME280;19843;51.040;13.782;2023-10-13T09:39:24;100038.06;;;23.01;68.58
33506;BME280;19843;51.040;13.782;2023-10-13T09:41:56;100044.66;;;22.98;68.70
33506;BME280;19843;51.040;13.782;2023-10-13T09:44:25;100049.88;;;22.76;68.58
33506;BME280;19843;51.040;13.782;2023-10-13T09:47:00;100048.00;;;22.66;69.90
33506;BME280;19843;51.040;13.782;2023-10-13T09:49:43;100043.06;;;22.46;70.50
33506;BME280;19843;51.040;13.782;2023-10-13T09:52:17;100050.66;;;22.26;73.28
33506;BME280;19843;51.040;13.782;2023-10-13T09:55:11;100045.69;;;22.34;71.59
33506;BME280;19843;51.040;13.782;2023-10-13T09:57:48;100039.56;;;22.35;71.66
33506;BME280;19843;51.040;13.782;2023-10-13T10:00:27;100039.25;;;22.30;71.24
33506;BME280;19843;51.040;13.782;2023-10-13T10:03:16;100038.06;;;22.27;72.02
33506;BME280;19843;51.040;13.782;2023-10-13T10:06:08;100040.16;;;22.23;72.71
33506;BME280;19843;51.040;13.782;2023-10-13T10:08:43;100039.19;;;22.03;73.73
33506;BME280;19843;51.040;13.782;2023-10-13T10:11:32;100029.69;;;22.16;73.30
33506;BME280;19843;51.040;13.782;2023-10-13T10:14:10;100023.34;;;22.05;74.91
33506;BME280;19843;51.040;13.782;2023-10-13T10:16:53;100027.19;;;21.91;74.67
33506;BME280;19843;51.040;13.782;2023-10-13T10:19:29;100021.25;;;22.09;73.92
33506;BME280;19843;51.040;13.782;2023-10-13T10:22:04;100018.63;;;21.95;74.12
33506;BME280;19843;51.040;13.782;2023-10-13T10:24:43;100006.09;;;21.62;75.43
33506;BME280;19843;51.040;13.782;2023-10-13T10:27:12;100007.28;;;21.91;74.65
33506;BME280;19843;51.040;13.782;2023-10-13T10:29:52;100008.69;;;21.80;76.07
33506;BME280;19843;51.040;13.782;2023-10-13T10:32:20;99998.06;;;21.84;75.50
33506;BME280;19843;51.040;13.782;2023-10-13T10:34:48;99998.31;;;21.66;77.16
33506;BME280;19843;51.040;13.782;2023-10-13T10:37:17;99990.03;;;21.48;78.65
33506;BME280;19843;51.040;13.782;2023-10-13T10:39:44;99992.91;;;21.44;77.40
33506;BME280;19843;51.040;13.782;2023-10-13T10:42:13;99992.56;;;21.39;76.12
33506;BME280;19843;51.040;13.782;2023-10-13T10:44:50;99989.69;;;21.42;76.80
33506;BME280;19843;51.040;13.782;2023-10-13T10:47:22;99993.59;;;21.56;77.70
33506;BME280;19843;51.040;13.782;2023-10-13T10:50:00;99981.69;;;21.64;76.10
33506;BME280;19843;51.040;13.782;2023-10-13T10:52:46;99980.84;;;21.67;75.05
33506;BME280;19843;51.040;13.782;2023-10-13T10:55:19;99979.72;;;21.88;73.16
33506;BME280;19843;51.040;13.782;2023-10-13T10:57:58;99965.81;;;21.70;75.03
33506;BME280;19843;51.040;13.782;2023-10-13T11:00:27;99964.28;;;21.62;76.64
33506;BME280;19843;51.040;13.782;2023-10-13T11:03:08;99959.00;;;21.91;72.99
33506;BME280;19843;51.040;13.782;2023-10-13T11:05:44;99959.84;;;21.88;74.84
33506;BME280;19843;51.040;13.782;2023-10-13T11:08:23;99960.97;;;21.94;74.26
33506;BME280;19843;51.040;13.782;2023-10-13T11:10:58;99950.91;;;22.17;71.86
33506;BME280;19843;51.040;13.782;2023-10-13T11:13:27;99950.00;;;22.23;72.34
33506;BME280;19843;51.040;13.782;2023-10-13T11:15:58;99944.81;;;22.18;72.62
33506;BME280;19843;51.040;13.782;2023-10-13T11:18:31;99944.13;;;22.07;75.00
33506;BME280;19843;51.040;13.782;2023-10-13T11:21:05;99942.06;;;22.11;73.06
33506;BME280;19843;51.040;13.782;2023-10-13T11:23:34;99934.19;;;22.22;72.60
33506;BME280;19843;51.040;13.782;2023-10-13T11:26:03;99931.25;;;22.26;73.34
33506;BME280;19843;51.040;13.782;2023-10-13T11:28:31;99933.13;;;22.09;73.47
33506;BME280;19843;51.040;13.782;2023-10-13T11:31:01;99930.41;;;22.02;74.22
33506;BME280;19843;51.040;13.782;2023-10-13T11:33:43;99919.84;;;22.03;73.67
33506;BME280;19843;51.040;13.782;2023-10-13T11:36:15;99920.81;;;22.19;72.75
33506;BME280;19843;51.040;13.782;2023-10-13T11:38:49;99918.91;;;22.13;73.29
33506;BME280;19843;51.040;13.782;2023-10-13T11:41:24;99905.84;;;22.15;73.16
33506;BME280;19843;51.040;13.782;2023-10-13T11:43:59;99925.66;;;22.22;71.70
33506;BME280;19843;51.040;13.782;2023-10-13T11:46:39;99925.81;;;22.35;71.12
33506;BME280;19843;51.040;13.782;2023-10-13T11:49:43;99920.56;;;22.34;70.45
33506;BME280;19843;51.040;13.782;2023-10-13T11:52:11;99920.56;;;22.34;72.08
33506;BME280;19843;51.040;13.782;2023-10-13T11:54:44;99913.84;;;22.47;69.94
33506;BME280;19843;51.040;13.782;2023-10-13T11:57:13;99908.50;;;22.49;69.74
33506;BME280;19843;51.040;13.782;2023-10-13T11:59:44;99905.41;;;22.40;71.46
33506;BME280;19843;51.040;13.782;2023-10-13T12:02:20;99898.78;;;22.27;71.63
33506;BME280;19843;51.040;13.782;2023-10-13T12:05:06;99895.22;;;22.43;69.28
33506;BME280;19843;51.040;13.782;2023-10-13T12:07:39;99881.19;;;22.56;69.21
33506;BME280;19843;51.040;13.782;2023-10-13T12:10:17;99877.41;;;22.62;67.88
33506;BME280;19843;51.040;13.782;2023-10-13T12:13:00;99860.84;;;22.57;70.45
33506;BME280;19843;51.040;13.782;2023-10-13T12:15:33;99857.41;;;22.46;69.97
33506;BME280;19843;51.040;13.782;2023-10-13T12:18:18;99861.63;;;22.58;68.44
33506;BME280;19843;51.040;13.782;2023-10-13T12:20:46;99859.16;;;22.60;67.78
33506;BME280;19843;51.040;13.782;2023-10-13T12:23:15;99865.03;;;22.49;70.16
33506;BME280;19843;51.040;13.782;2023-10-13T12:25:45;99861.56;;;22.41;70.76
33506;BME280;19843;51.040;13.782;2023-10-13T12:28:24;99875.44;;;22.12;72.62
33506;BME280;19843;51.040;13.782;2023-10-13T12:31:03;99868.69;;;22.03;74.36
33506;BME280;19843;51.040;13.782;2023-10-13T12:33:33;99862.59;;;22.04;73.69
33506;BME280;19843;51.040;13.782;2023-10-13T12:36:06;99852.38;;;22.07;73.47
33506;BME280;19843;51.040;13.782;2023-10-13T12:38:36;99852.25;;;21.90;73.95
33506;BME280;19843;51.040;13.782;2023-10-13T12:41:19;99845.09;;;22.06;73.78
33506;BME280;19843;51.040;13.782;2023-10-13T12:44:06;99846.38;;;22.01;73.81
33506;BME280;19843;51.040;13.782;2023-10-13T12:46:52;99838.34;;;21.96;74.30
33506;BME280;19843;51.040;13.782;2023-10-13T12:49:37;99837.31;;;22.10;73.62
33506;BME280;19843;51.040;13.782;2023-10-13T12:52:25;99844.66;;;22.07;73.46
33506;BME280;19843;51.040;13.782;2023-10-13T12:54:54;99837.84;;;22.01;72.68
33506;BME280;19843;51.040;13.782;2023-10-13T12:57:37;99834.91;;;22.08;72.14
33506;BME280;19843;51.040;13.782;2023-10-13T13:00:13;99832.81;;;21.89;72.04
33506;BME280;19843;51.040;13.782;2023-10-13T13:02:48;99817.13;;;22.04;71.54
33506;BME280;19843;51.040;13.782;2023-10-13T13:05:19;99808.31;;;22.22;71.28
33506;BME280;19843;51.040;13.782;2023-10-13T13:07:49;99804.44;;;22.32;70.17
33506;BME280;19843;51.040;13.782;2023-10-13T13:10:20;99794.72;;;22.30;69.66
33506;BME280;19843;51.040;13.782;2023-10-13T13:13:04;99785.97;;;22.20;70.45
33506;BME280;19843;51.040;13.782;2023-10-13T13:15:32;99775.00;;;22.42;69.19
33506;BME280;19843;51.040;13.782;2023-10-13T13:18:00;99774.03;;;22.49;68.62
33506;BME280;19843;51.040;13.782;2023-10-13T13:20:37;99778.91;;;22.68;67.28
33506;BME280;19843;51.040;13.782;2023-10-13T13:23:10;99773.31;;;22.85;66.52
33506;BME280;19843;51.040;13.782;2023-10-13T13:25:42;99774.06;;;22.89;66.54